Time;durP1;ratioP1;P1;durP2;ratioP2;P2;SDS_P1;SDS_P2;PMS_P1;PMS_P2;Temp;Humidity;BMP_temperature;BMP_pressure;BME280_temperature;BME280_humidity;BME280_pressure;Samples;Min_cycle;Max_cycle;Signal;HPM_P1;HPM_P2
2023/08/30 00:00:17;;;;;;;5.50;2.53;;;12.40;99.90;;;;;;5039274;28;20017;-78
2023/08/30 00:02:44;;;;;;;4.90;2.50;;;12.40;99.90;;;;;;5055695;28;20063;-77
2023/08/30 00:05:09;;;;;;;8.02;3.17;;;12.30;99.90;;;;;;5056102;28;20020;-77
2023/08/30 00:07:35;;;;;;;7.80;3.40;;;12.40;99.90;;;;;;5055824;28;20029;-77
2023/08/30 00:10:01;;;;;;;6.45;2.65;;;12.40;99.90;;;;;;5055457;28;20037;-76
2023/08/30 00:12:27;;;;;;;5.05;2.85;;;12.40;99.90;;;;;;5037809;28;20017;-76
2023/08/30 00:14:54;;;;;;;5.68;2.78;;;12.40;99.90;;;;;;5038269;28;20028;-75
2023/08/30 00:17:19;;;;;;;5.22;2.95;;;12.50;99.90;;;;;;5055993;28;20024;-78
2023/08/30 00:19:46;;;;;;;5.90;2.83;;;12.50;99.90;;;;;;5057371;28;20087;-78
2023/08/30 00:22:12;;;;;;;5.10;2.90;;;12.50;99.90;;;;;;5037778;28;20068;-77
2023/08/30 00:24:38;;;;;;;5.93;3.20;;;12.60;99.90;;;;;;5054684;28;20400;-76
2023/08/30 00:27:04;;;;;;;4.75;3.15;;;12.60;99.90;;;;;;5054984;28;20041;-76
2023/08/30 00:29:30;;;;;;;7.78;3.10;;;12.60;99.90;;;;;;5055218;28;20083;-78
2023/08/30 00:31:56;;;;;;;4.45;2.42;;;12.60;99.90;;;;;;5055867;28;20021;-77
2023/08/30 00:34:21;;;;;;;7.18;3.05;;;12.70;99.90;;;;;;5054417;28;20036;-78
2023/08/30 00:36:47;;;;;;;7.18;3.70;;;12.70;99.90;;;;;;5056535;28;20021;-78
2023/08/30 00:39:13;;;;;;;11.30;3.80;;;12.70;99.90;;;;;;5038784;28;20021;-78
2023/08/30 00:41:39;;;;;;;10.10;3.00;;;12.80;99.90;;;;;;5056893;28;20528;-78
2023/08/30 00:44:04;;;;;;;7.85;3.58;;;13.00;99.90;;;;;;5056612;28;20031;-78
2023/08/30 00:46:31;;;;;;;7.07;3.72;;;12.80;99.90;;;;;;5056892;28;20043;-78
2023/08/30 00:48:58;;;;;;;6.70;3.60;;;12.90;99.90;;;;;;5056901;28;20025;-78
2023/08/30 00:51:24;;;;;;;5.93;3.03;;;12.90;99.90;;;;;;5038838;28;20025;-78
2023/08/30 00:53:49;;;;;;;11.52;4.22;;;12.90;99.90;;;;;;5056827;28;20047;-78
2023/08/30 00:56:15;;;;;;;5.53;2.97;;;12.90;99.90;;;;;;5055862;28;20479;-78
2023/08/30 00:58:41;;;;;;;7.80;3.65;;;12.90;99.90;;;;;;5056059;28;20029;-77
2023/08/30 01:01:08;;;;;;;6.07;3.35;;;13.00;99.90;;;;;;5055763;28;20025;-78
2023/08/30 01:03:34;;;;;;;6.90;3.15;;;12.90;99.90;;;;;;5056387;28;20075;-78
2023/08/30 01:06:00;;;;;;;8.07;3.38;;;13.00;99.90;;;;;;5055509;28;20025;-78
2023/08/30 01:08:26;;;;;;;5.65;3.13;;;13.00;99.90;;;;;;5054327;28;20035;-77
2023/08/30 01:11:10;;;;;;;5.35;3.10;;;13.00;99.90;;;;;;5054260;28;20021;-77
2023/08/30 01:13:45;;;;;;;5.30;3.22;;;13.00;99.90;;;;;;5036336;28;20029;-77
2023/08/30 01:16:12;;;;;;;7.57;3.05;;;13.00;99.90;;;;;;5054147;28;20021;-77
2023/08/30 01:18:39;;;;;;;5.53;2.85;;;13.00;99.90;;;;;;5036415;28;20032;-77
2023/08/30 01:21:11;;;;;;;7.13;3.58;;;13.00;99.90;;;;;;5054006;28;20025;-77
2023/08/30 01:23:49;;;;;;;4.45;2.92;;;13.00;99.90;;;;;;5036144;28;20032;-77
2023/08/30 01:27:06;;;;;;;8.80;3.40;;;13.10;99.90;;;;;;5035983;28;20055;-77
2023/08/30 01:29:33;;;;;;;4.63;3.08;;;13.10;99.90;;;;;;4999050;28;20115;-77
2023/08/30 01:31:59;;;;;;;5.95;3.00;;;13.20;99.90;;;;;;5053811;28;20033;-77
2023/08/30 01:34:25;;;;;;;5.45;3.13;;;13.20;99.90;;;;;;5053640;28;20457;-77
2023/08/30 01:36:51;;;;;;;7.05;3.40;;;13.20;99.90;;;;;;5053570;28;20052;-77
2023/08/30 01:39:17;;;;;;;5.70;3.63;;;14.00;99.90;;;;;;5053714;28;20107;-77
2023/08/30 01:41:44;;;;;;;7.72;3.15;;;13.20;99.90;;;;;;5036132;28;20029;-77
2023/08/30 01:44:11;;;;;;;5.63;2.63;;;13.30;99.90;;;;;;5053755;28;20389;-77
2023/08/30 01:46:38;;;;;;;5.50;2.95;;;13.30;99.90;;;;;;5053324;28;20501;-77
2023/08/30 01:49:07;;;;;;;4.63;2.75;;;13.30;99.90;;;;;;5035791;28;20112;-77
2023/08/30 01:51:33;;;;;;;11.07;2.97;;;13.30;99.90;;;;;;5053644;28;20017;-77
2023/08/30 01:53:58;;;;;;;6.20;3.42;;;13.30;99.90;;;;;;5053535;28;20029;-77
2023/08/30 01:56:24;;;;;;;6.10;2.83;;;13.40;99.90;;;;;;5053669;28;20388;-77
2023/08/30 01:58:50;;;;;;;5.32;3.25;;;14.20;99.90;;;;;;5035665;28;20119;-77
2023/08/30 02:01:15;;;;;;;7.72;3.53;;;13.30;99.90;;;;;;5035587;28;20473;-77
2023/08/30 02:03:44;;;;;;;8.00;2.47;;;13.30;99.90;;;;;;5054028;28;20037;-77
2023/08/30 02:06:16;;;;;;;10.70;3.53;;;13.40;99.90;;;;;;5053435;28;20030;-77
2023/08/30 02:08:58;;;;;;;5.53;3.10;;;13.90;99.90;;;;;;5053213;28;20033;-77
2023/08/30 02:11:27;;;;;;;6.55;3.08;;;13.40;99.90;;;;;;5054044;28;20028;-77
2023/08/30 02:13:54;;;;;;;;;;;13.40;99.90;;;;;;5035993;28;20017;-77
2023/08/30 02:16:22;;;;;;;6.07;2.75;;;13.40;99.90;;;;;;5053252;28;19908;-77
2023/08/30 02:18:49;;;;;;;7.53;3.63;;;13.40;99.90;;;;;;5035416;28;20036;-77
2023/08/30 02:21:14;;;;;;;9.15;3.30;;;13.40;99.90;;;;;;5035295;28;20488;-77
2023/08/30 02:23:40;;;;;;;5.75;2.75;;;13.40;99.90;;;;;;5053175;28;20032;-77
2023/08/30 02:26:05;;;;;;;7.82;3.22;;;13.40;99.90;;;;;;5053488;28;20036;-77
2023/08/30 02:28:31;;;;;;;6.20;3.17;;;13.40;99.90;;;;;;5053355;28;20484;-78
2023/08/30 02:30:57;;;;;;;5.88;3.28;;;13.30;99.90;;;;;;5053909;28;20075;-77
2023/08/30 02:33:22;;;;;;;4.80;2.40;;;13.30;99.90;;;;;;5053907;28;20025;-77
2023/08/30 02:35:48;;;;;;;6.20;2.95;;;13.30;99.90;;;;;;5053432;28;20051;-78
2023/08/30 02:38:13;;;;;;;7.00;2.95;;;13.20;99.90;;;;;;5053412;28;20100;-77
2023/08/30 02:40:39;;;;;;;10.65;3.67;;;13.20;99.90;;;;;;5053113;28;20049;-77
2023/08/30 02:43:04;;;;;;;4.32;2.75;;;13.20;99.90;;;;;;5052028;28;20025;-77
2023/08/30 02:45:30;;;;;;;6.60;3.53;;;13.10;99.90;;;;;;5053065;28;20029;-77
2023/08/30 02:47:56;;;;;;;8.38;3.47;;;13.10;99.90;;;;;;5053522;28;20373;-77
2023/08/30 02:50:23;;;;;;;9.80;3.88;;;13.10;99.90;;;;;;5035266;28;20365;-77
2023/08/30 02:52:48;;;;;;;8.20;3.10;;;13.00;99.90;;;;;;5052915;28;20021;-77
2023/08/30 02:55:14;;;;;;;6.88;3.35;;;13.00;99.90;;;;;;5052922;28;20021;-77
2023/08/30 02:57:39;;;;;;;8.32;3.67;;;13.00;99.90;;;;;;5054663;28;20021;-76
2023/08/30 03:00:06;;;;;;;7.78;3.55;;;12.90;99.90;;;;;;5057391;28;20496;-78
2023/08/30 03:02:34;;;;;;;7.80;3.40;;;13.00;99.90;;;;;;5057256;28;20158;-78
2023/08/30 03:05:00;;;;;;;;;;;12.90;99.90;;;;;;5057806;28;20032;-77
2023/08/30 03:07:28;;;;;;;32.45;5.22;;;13.00;99.90;;;;;;5057536;28;19948;-77
2023/08/30 03:09:53;;;;;;;7.15;3.85;;;13.00;99.90;;;;;;5056917;28;20029;-77
2023/08/30 03:12:19;;;;;;;9.02;4.47;;;13.00;99.90;;;;;;5056584;28;20469;-78
2023/08/30 03:14:44;;;;;;;12.57;4.53;;;13.00;99.90;;;;;;5038502;28;20013;-77
2023/08/30 03:17:10;;;;;;;9.60;4.07;;;13.10;99.90;;;;;;5057103;28;20025;-77
2023/08/30 03:19:35;;;;;;;7.72;3.95;;;13.00;99.90;;;;;;5056906;28;20416;-77
2023/08/30 03:22:01;;;;;;;7.60;3.50;;;13.00;99.90;;;;;;5038500;28;20055;-77
2023/08/30 03:24:26;;;;;;;10.00;4.03;;;12.90;99.90;;;;;;5056569;28;20358;-77
2023/08/30 03:26:52;;;;;;;10.05;4.72;;;12.90;99.90;;;;;;5056328;28;20405;-77
2023/08/30 03:29:17;;;;;;;7.40;3.90;;;12.80;99.90;;;;;;5056500;28;20032;-77
2023/08/30 03:31:43;;;;;;;7.97;4.03;;;12.80;99.90;;;;;;5056386;28;20021;-77
2023/08/30 03:34:09;;;;;;;7.90;4.55;;;12.70;99.90;;;;;;5038674;28;20415;-77
2023/08/30 03:36:35;;;;;;;8.82;4.05;;;12.60;99.90;;;;;;5056088;28;20563;-77
2023/08/30 03:39:00;;;;;;;10.73;4.40;;;12.60;99.90;;;;;;5055948;28;20061;-76
2023/08/30 03:41:26;;;;;;;8.57;3.58;;;12.50;99.90;;;;;;5037911;28;20127;-77
2023/08/30 03:43:51;;;;;;;10.38;4.03;;;12.50;99.90;;;;;;5057233;28;20486;-78
2023/08/30 03:46:17;;;;;;;9.32;4.97;;;12.40;99.90;;;;;;5057094;28;20424;-78
2023/08/30 03:48:42;;;;;;;10.10;4.20;;;12.30;99.90;;;;;;5056438;28;20051;-78
2023/08/30 03:51:08;;;;;;;8.30;4.80;;;12.30;99.90;;;;;;5057187;28;20023;-78
2023/08/30 03:53:34;;;;;;;10.50;4.57;;;12.20;99.90;;;;;;5057106;28;20072;-77
2023/08/30 03:55:59;;;;;;;10.02;4.43;;;12.20;99.90;;;;;;5039224;28;20051;-77
2023/08/30 03:58:25;;;;;;;11.40;5.55;;;12.10;99.90;;;;;;5057379;28;20025;-78
2023/08/30 04:00:50;;;;;;;9.95;4.80;;;12.10;99.90;;;;;;5057208;28;20063;-77
2023/08/30 04:03:16;;;;;;;11.63;4.53;;;12.20;99.90;;;;;;5056997;28;20025;-78
2023/08/30 04:05:42;;;;;;;9.80;4.95;;;12.10;99.90;;;;;;5056671;28;20096;-78
2023/08/30 04:08:08;;;;;;;8.23;4.22;;;12.10;99.90;;;;;;5056389;28;20036;-78
2023/08/30 04:10:41;;;;;;;9.32;5.43;;;12.10;99.90;;;;;;5056501;28;20029;-78
2023/08/30 04:13:08;;;;;;;9.80;5.50;;;12.00;99.90;;;;;;5055363;28;20029;-76
2023/08/30 04:15:34;;;;;;;12.13;5.13;;;12.00;99.90;;;;;;5055379;28;20021;-78
2023/08/30 04:18:00;;;;;;;11.27;4.90;;;12.00;99.90;;;;;;5056527;28;20067;-77
2023/08/30 04:20:26;;;;;;;9.20;4.32;;;12.10;99.90;;;;;;5055654;28;20488;-76
2023/08/30 04:22:53;;;;;;;11.98;5.45;;;12.10;99.90;;;;;;5055533;28;20029;-77
2023/08/30 04:25:18;;;;;;;12.48;5.85;;;12.10;99.90;;;;;;5055373;28;20479;-76
2023/08/30 04:27:44;;;;;;;9.68;4.82;;;12.10;99.90;;;;;;5037357;28;20048;-77
2023/08/30 04:30:10;;;;;;;11.65;4.95;;;12.10;99.90;;;;;;5054791;28;20033;-77
2023/08/30 04:32:36;;;;;;;10.20;4.63;;;12.00;99.90;;;;;;5036950;28;20448;-77
2023/08/30 04:35:02;;;;;;;12.25;5.72;;;12.00;99.90;;;;;;5054758;28;20060;-77
2023/08/30 04:37:33;;;;;;;9.20;4.47;;;12.10;99.90;;;;;;5036675;28;20025;-77
2023/08/30 04:39:59;;;;;;;10.43;4.97;;;12.00;99.90;;;;;;5054842;28;20524;-77
2023/08/30 04:42:25;;;;;;;12.27;5.15;;;12.00;99.90;;;;;;5054861;28;20032;-77
2023/08/30 04:44:51;;;;;;;11.95;5.10;;;12.00;99.90;;;;;;5055343;28;20033;-77
2023/08/30 04:47:17;;;;;;;11.38;4.95;;;11.90;99.90;;;;;;5055175;28;20056;-77
2023/08/30 04:49:42;;;;;;;11.18;5.25;;;11.90;99.90;;;;;;5036737;28;20064;-77
2023/08/30 04:52:08;;;;;;;11.25;4.90;;;11.90;99.90;;;;;;5054578;28;20025;-77
2023/08/30 04:54:33;;;;;;;10.00;4.82;;;11.80;99.90;;;;;;5036671;28;20032;-77
2023/08/30 04:56:59;;;;;;;11.05;4.93;;;11.80;99.90;;;;;;5036618;28;20056;-77
2023/08/30 04:59:30;;;;;;;10.05;4.90;;;11.70;99.90;;;;;;5054747;28;20025;-77
2023/08/30 05:01:56;;;;;;;10.80;4.75;;;11.70;99.90;;;;;;5054414;28;20029;-77
2023/08/30 05:04:21;;;;;;;10.48;5.15;;;11.80;99.90;;;;;;5054147;28;20025;-77
2023/08/30 05:06:47;;;;;;;10.90;4.40;;;11.70;99.90;;;;;;5036099;28;20120;-77
2023/08/30 05:09:12;;;;;;;11.88;4.55;;;11.70;99.90;;;;;;5036171;28;20025;-77
2023/08/30 05:11:38;;;;;;;12.00;5.07;;;11.80;99.90;;;;;;5036358;28;20028;-77
2023/08/30 05:14:03;;;;;;;11.75;5.15;;;11.80;99.90;;;;;;5054161;28;20049;-77
2023/08/30 05:16:29;;;;;;;10.80;4.80;;;11.80;99.90;;;;;;5036135;28;20041;-77
2023/08/30 05:18:54;;;;;;;10.70;4.93;;;11.80;99.90;;;;;;5036090;28;20033;-77
2023/08/30 05:21:20;;;;;;;9.38;4.57;;;11.90;99.90;;;;;;5053230;28;20021;-77
2023/08/30 05:23:46;;;;;;;10.25;5.18;;;11.90;99.90;;;;;;5036131;28;20060;-77
2023/08/30 05:26:12;;;;;;;10.80;4.53;;;11.90;99.90;;;;;;5053695;28;20435;-77
2023/08/30 05:28:38;;;;;;;8.45;4.15;;;12.00;99.90;;;;;;5035758;28;20021;-77
2023/08/30 05:31:04;;;;;;;11.40;4.75;;;12.00;99.90;;;;;;5053891;28;20025;-77
2023/08/30 05:33:30;;;;;;;19.00;4.43;;;12.10;99.90;;;;;;5054046;28;20029;-77
2023/08/30 05:35:55;;;;;;;11.68;4.53;;;12.10;99.90;;;;;;5053585;28;20025;-77
2023/08/30 05:38:21;;;;;;;10.10;4.32;;;12.20;99.90;;;;;;5053467;28;20025;-77
2023/08/30 05:40:47;;;;;;;8.77;4.07;;;12.20;99.90;;;;;;5035791;28;20024;-77
2023/08/30 05:43:12;;;;;;;10.18;4.72;;;12.30;99.90;;;;;;5053656;28;20029;-77
2023/08/30 05:45:38;;;;;;;10.80;4.28;;;12.30;99.90;;;;;;5053376;28;20429;-77
2023/08/30 05:48:04;;;;;;;10.85;4.30;;;12.40;99.90;;;;;;5053953;28;20021;-77
2023/08/30 05:50:30;;;;;;;9.50;4.95;;;12.50;99.90;;;;;;5053496;28;20151;-77
2023/08/30 05:52:55;;;;;;;10.27;4.07;;;12.60;99.90;;;;;;5035546;28;20132;-76
2023/08/30 05:55:21;;;;;;;9.90;4.20;;;13.40;99.90;;;;;;5035399;28;20029;-76
2023/08/30 05:57:46;;;;;;;11.40;4.30;;;12.60;99.90;;;;;;5035907;28;20570;-77
2023/08/30 06:00:13;;;;;;;9.45;4.53;;;12.70;99.90;;;;;;5053364;28;20423;-77
2023/08/30 06:02:39;;;;;;;9.68;4.13;;;12.70;99.90;;;;;;5053762;28;20028;-77
2023/08/30 06:05:05;;;;;;;9.90;3.85;;;12.70;99.90;;;;;;5053425;28;20021;-77
2023/08/30 06:07:30;;;;;;;8.10;4.13;;;12.70;99.90;;;;;;5053436;28;20098;-77
2023/08/30 06:09:56;;;;;;;11.88;4.47;;;12.70;99.90;;;;;;5035264;28;20444;-77
2023/08/30 06:12:22;;;;;;;11.95;4.40;;;12.70;99.90;;;;;;5053118;28;20139;-76
2023/08/30 06:14:51;;;;;;;17.52;4.00;;;12.70;99.90;;;;;;5052935;28;20021;-77
2023/08/30 06:17:20;;;;;;;7.78;4.25;;;12.60;99.90;;;;;;5035586;28;20396;-77
2023/08/30 06:19:46;;;;;;;;;;;12.70;99.90;;;;;;5054444;28;20078;-77
2023/08/30 06:22:12;;;;;;;12.48;5.22;;;12.70;99.90;;;;;;5053222;28;19999;-76
2023/08/30 06:24:38;;;;;;;8.85;3.90;;;12.60;99.90;;;;;;5053486;28;20416;-77
2023/08/30 06:27:04;;;;;;;9.80;4.05;;;12.60;99.90;;;;;;5053665;28;20032;-77
2023/08/30 06:29:29;;;;;;;11.23;4.68;;;12.60;99.90;;;;;;5035223;28;20032;-76
2023/08/30 06:31:55;;;;;;;9.38;4.78;;;12.60;99.90;;;;;;5036831;28;20025;-77
2023/08/30 06:34:21;;;;;;;12.25;5.13;;;12.60;99.90;;;;;;5057548;28;20473;-77
2023/08/30 06:36:47;;;;;;;9.85;4.18;;;12.70;99.90;;;;;;5057130;28;20476;-77
2023/08/30 06:39:12;;;;;;;9.38;4.10;;;12.70;99.90;;;;;;5057099;28;20079;-77
2023/08/30 06:41:38;;;;;;;10.73;4.78;;;12.70;99.90;;;;;;5039074;28;20029;-77
2023/08/30 06:44:03;;;;;;;10.00;4.30;;;12.70;99.90;;;;;;5056822;28;20447;-77
2023/08/30 06:46:29;;;;;;;9.82;3.95;;;12.80;99.90;;;;;;5038884;28;20087;-77
2023/08/30 06:48:55;;;;;;;9.73;4.45;;;12.80;99.90;;;;;;5038805;28;20044;-77
2023/08/30 06:51:20;;;;;;;8.70;3.95;;;13.00;99.90;;;;;;5057362;28;20473;-77
2023/08/30 06:53:49;;;;;;;9.57;4.03;;;13.00;99.90;;;;;;5057368;28;20021;-77
2023/08/30 06:56:14;;;;;;;10.43;4.22;;;13.00;99.90;;;;;;5056644;28;20028;-77
2023/08/30 06:58:40;;;;;;;10.80;4.75;;;13.00;99.90;;;;;;5038913;28;20029;-77
2023/08/30 07:01:05;;;;;;;8.23;4.22;;;13.10;99.90;;;;;;5056606;28;20496;-77
2023/08/30 07:03:31;;;;;;;7.43;3.70;;;13.10;99.90;;;;;;5038571;28;20032;-77
2023/08/30 07:05:56;;;;;;;10.90;4.60;;;13.10;99.90;;;;;;5056449;28;20385;-77
2023/08/30 07:08:22;;;;;;;7.55;4.47;;;13.10;99.90;;;;;;5056272;28;20021;-77
2023/08/30 07:10:47;;;;;;;8.80;4.22;;;13.30;99.90;;;;;;5056562;28;20025;-77
2023/08/30 07:13:13;;;;;;;9.50;4.38;;;13.10;99.90;;;;;;5039058;28;20052;-77
2023/08/30 07:15:40;;;;;;;9.15;5.28;;;13.20;99.90;;;;;;5038352;28;20033;-77
2023/08/30 07:18:07;;;;;;;11.50;4.70;;;13.20;99.90;;;;;;5056302;28;20484;-77
2023/08/30 07:20:32;;;;;;;7.93;4.40;;;13.20;99.90;;;;;;5038277;28;20047;-77
2023/08/30 07:22:58;;;;;;;10.82;5.68;;;13.20;99.90;;;;;;5038342;28;20025;-77
2023/08/30 07:25:24;;;;;;;9.73;5.22;;;13.20;99.90;;;;;;5056099;28;20071;-77
2023/08/30 07:27:50;;;;;;;8.60;3.88;;;13.20;99.90;;;;;;5056050;28;20090;-77
2023/08/30 07:30:15;;;;;;;8.30;5.18;;;13.30;99.90;;;;;;5056115;28;20076;-77
2023/08/30 07:32:41;;;;;;;9.73;4.68;;;13.30;99.90;;;;;;5056481;28;20223;-77
2023/08/30 07:35:07;;;;;;;10.70;4.82;;;13.40;99.90;;;;;;5056203;28;20018;-77
2023/08/30 07:37:34;;;;;;;10.55;4.18;;;13.40;99.90;;;;;;5056094;28;20028;-77
2023/08/30 07:39:59;;;;;;;8.18;4.32;;;13.40;99.90;;;;;;5056044;28;20095;-77
2023/08/30 07:42:25;;;;;;;6.63;4.03;;;13.50;99.90;;;;;;5056313;28;20048;-77
2023/08/30 07:44:51;;;;;;;10.40;3.40;;;13.50;99.90;;;;;;5055096;28;20067;-77
2023/08/30 07:47:16;;;;;;;13.35;4.38;;;13.50;99.90;;;;;;5037842;28;20025;-76
2023/08/30 07:49:42;;;;;;;9.05;3.53;;;13.50;99.90;;;;;;5037778;28;20438;-77
2023/08/30 07:52:10;;;;;;;6.90;3.50;;;13.60;99.90;;;;;;5055839;28;20017;-77
2023/08/30 07:54:37;;;;;;;9.13;3.33;;;13.60;99.90;;;;;;5055635;28;20092;-77
2023/08/30 07:57:03;;;;;;;8.02;3.45;;;13.70;99.90;;;;;;5055714;28;20075;-77
2023/08/30 07:59:30;;;;;;;8.13;3.63;;;13.70;99.90;;;;;;5056057;28;20048;-77
2023/08/30 08:01:55;;;;;;;7.97;3.45;;;14.00;99.90;;;;;;5055351;28;20079;-77
2023/08/30 08:04:21;;;;;;;7.75;3.63;;;13.90;99.90;;;;;;5055332;28;20017;-76
2023/08/30 08:06:47;;;;;;;5.70;3.17;;;13.90;99.90;;;;;;5055924;28;20032;-77
2023/08/30 08:09:12;;;;;;;8.85;2.22;;;13.90;99.90;;;;;;5055704;28;20028;-78
2023/08/30 08:11:43;;;;;;;7.35;2.65;;;14.10;99.90;;;;;;5037703;28;20397;-77
2023/08/30 08:14:11;;;;;;;6.40;2.38;;;14.00;99.90;;;;;;5055353;28;20017;-77
2023/08/30 08:16:37;;;;;;;5.55;1.77;;;14.30;99.90;;;;;;5037575;28;20021;-77
2023/08/30 08:19:03;;;;;;;3.72;1.98;;;14.00;99.90;;;;;;5055288;28;20025;-77
2023/08/30 08:21:29;;;;;;;5.65;1.60;;;14.00;99.90;;;;;;5037248;28;20502;-77
2023/08/30 08:23:54;;;;;;;3.13;1.75;;;14.00;99.90;;;;;;5055610;28;20105;-76
2023/08/30 08:26:20;;;;;;;2.92;1.17;;;14.00;99.90;;;;;;5054607;28;20033;-77
2023/08/30 08:28:45;;;;;;;4.78;1.63;;;14.00;99.90;;;;;;5054730;28;20024;-77
2023/08/30 08:31:11;;;;;;;3.70;1.60;;;;;;;;;;5054914;28;20033;-77
2023/08/30 08:33:37;;;;;;;4.40;1.75;;;14.00;99.90;;;;;;5036838;28;20366;-77
2023/08/30 08:36:02;;;;;;;4.78;1.70;;;14.10;99.90;;;;;;5036813;28;20021;-77
2023/08/30 08:38:28;;;;;;;4.43;1.83;;;14.10;99.90;;;;;;5054657;28;20057;-77
2023/08/30 08:41:01;;;;;;;2.95;1.58;;;14.10;99.90;;;;;;5055109;28;20060;-77
2023/08/30 08:43:28;;;;;;;5.32;1.80;;;14.10;99.90;;;;;;5054627;28;20017;-77
2023/08/30 08:45:59;;;;;;;5.53;2.00;;;14.20;99.90;;;;;;5036554;28;20021;-77
2023/08/30 08:48:28;;;;;;;3.83;1.50;;;14.10;99.90;;;;;;5054453;28;20499;-77
2023/08/30 08:50:54;;;;;;;2.58;1.30;;;14.10;99.90;;;;;;5054420;28;20024;-77
2023/08/30 08:53:20;;;;;;;4.95;1.38;;;14.20;99.90;;;;;;5054864;28;20059;-76
2023/08/30 08:55:47;;;;;;;2.95;1.33;;;14.20;99.90;;;;;;5053247;28;20392;-77
2023/08/30 08:58:14;;;;;;;3.22;1.60;;;14.30;99.90;;;;;;5036461;28;20028;-77
2023/08/30 09:00:44;;;;;;;5.65;1.70;;;14.30;99.90;;;;;;5054219;28;20017;-77
2023/08/30 09:03:11;;;;;;;3.20;1.80;;;14.30;99.90;;;;;;5054224;28;20025;-77
2023/08/30 09:05:40;;;;;;;2.90;1.95;;;14.30;99.90;;;;;;5036175;28;20392;-77
2023/08/30 09:08:06;;;;;;;5.03;2.15;;;14.30;99.90;;;;;;5054131;28;20021;-77
2023/08/30 09:10:33;;;;;;;3.17;2.15;;;14.30;99.90;;;;;;5053937;28;20039;-77
2023/08/30 09:12:59;;;;;;;4.32;2.40;;;14.30;99.90;;;;;;5053929;28;20032;-77
2023/08/30 09:15:37;;;;;;;4.30;2.33;;;14.40;99.90;;;;;;5036067;28;20032;-77
2023/08/30 09:18:03;;;;;;;3.75;2.67;;;14.40;99.90;;;;;;5036012;28;20014;-77
2023/08/30 09:20:29;;;;;;;4.30;2.88;;;14.50;99.90;;;;;;5054018;28;20385;-77
2023/08/30 09:22:54;;;;;;;3.20;2.38;;;14.60;99.90;;;;;;5036085;28;20017;-77
2023/08/30 09:25:25;;;;;;;7.60;3.05;;;14.90;99.90;;;;;;5035742;28;20115;-77
2023/08/30 09:27:51;;;;;;;4.43;2.50;;;14.90;99.90;;;;;;5035902;28;20035;-77
2023/08/30 09:30:23;;;;;;;5.22;2.80;;;15.00;99.90;;;;;;5035847;28;20029;-77
2023/08/30 09:32:48;;;;;;;6.28;2.95;;;15.00;99.90;;;;;;5035824;28;20054;-77
2023/08/30 09:35:17;;;;;;;5.00;3.08;;;15.40;99.90;;;;;;5053595;28;20480;-77
2023/08/30 09:37:46;;;;;;;5.00;3.05;;;15.30;99.90;;;;;;5053601;28;20017;-77
2023/08/30 09:40:17;;;;;;;5.22;2.80;;;15.40;99.90;;;;;;5053448;28;20044;-77
2023/08/30 09:42:43;;;;;;;4.55;2.47;;;15.50;99.90;;;;;;5053526;28;20021;-76
2023/08/30 09:45:38;;;;;;;9.32;3.33;;;15.60;99.90;;;;;;5035482;28;20043;-77
2023/08/30 09:48:05;;;;;;;6.03;4.38;;;15.50;99.90;;;;;;5032359;28;20378;-77
2023/08/30 09:50:35;;;;;;;6.13;3.28;;;15.50;99.90;;;;;;5035567;28;20438;-77
2023/08/30 09:53:06;;;;;;;6.35;3.08;;;15.50;99.90;;;;;;5053406;28;20029;-77
2023/08/30 09:55:33;;;;;;;4.75;3.60;;;15.70;99.90;;;;;;5053351;28;20449;-77
2023/08/30 09:57:59;;;;;;;5.45;4.03;;;15.90;99.90;;;;;;5053466;28;20021;-77
2023/08/30 10:00:25;;;;;;;4.68;3.70;;;16.10;99.90;;;;;;5035604;28;20025;-76
2023/08/30 10:02:50;;;;;;;5.68;3.38;;;16.30;99.90;;;;;;5035582;28;20063;-76
2023/08/30 10:05:16;;;;;;;5.15;3.65;;;16.50;99.90;;;;;;5053563;28;20024;-76
2023/08/30 10:07:43;;;;;;;5.30;3.67;;;16.50;99.90;;;;;;5035041;28;20025;-76
2023/08/30 10:10:10;;;;;;;5.20;3.80;;;16.70;99.90;;;;;;5035327;28;20027;-76
2023/08/30 10:12:36;;;;;;;5.35;3.83;;;17.00;99.90;;;;;;5053775;28;20032;-76
2023/08/30 10:15:02;;;;;;;6.43;3.60;;;17.40;99.90;;;;;;5035105;28;20396;-76
2023/08/30 10:17:32;;;;;;;6.35;3.97;;;17.70;99.90;;;;;;5035217;28;20017;-76
2023/08/30 10:20:02;;;;;;;3.88;3.08;;;18.00;99.90;;;;;;5053163;28;20170;-76
2023/08/30 10:22:28;;;;;;;3.13;2.67;;;18.30;99.90;;;;;;5053160;28;20025;-76
2023/08/30 10:25:01;;;;;;;5.50;2.47;;;18.40;99.90;;;;;;5052776;28;20036;-76
2023/08/30 10:27:28;;;;;;;5.20;2.28;;;18.50;99.90;;;;;;5052945;28;20104;-76
2023/08/30 10:29:54;;;;;;;5.47;1.23;;;18.50;99.90;;;;;;5053030;28;20030;-76
2023/08/30 10:32:23;;;;;;;0.95;0.88;;;18.60;99.90;;;;;;5035153;28;20397;-76
2023/08/30 10:34:51;;;;;;;3.03;0.88;;;18.80;99.90;;;;;;5053035;28;20484;-76
2023/08/30 10:37:26;;;;;;;1.77;1.02;;;19.00;99.90;;;;;;5053156;28;20021;-76
2023/08/30 10:39:52;;;;;;;3.85;0.38;;;19.20;99.90;;;;;;5053045;28;20060;-76
2023/08/30 10:42:22;;;;;;;2.67;0.10;;;19.50;99.90;;;;;;5052979;28;20024;-76
2023/08/30 10:44:51;;;;;;;2.50;0.35;;;19.60;99.90;;;;;;5053019;28;20067;-75
2023/08/30 10:47:23;;;;;;;5.50;0.45;;;19.90;99.90;;;;;;5052912;28;20029;-76
2023/08/30 10:49:49;;;;;;;1.48;0.28;;;19.90;99.90;;;;;;5052886;28;20393;-76
2023/08/30 10:52:15;;;;;;;3.15;0.73;;;19.80;99.90;;;;;;5035031;28;20025;-75
2023/08/30 10:54:40;;;;;;;8.40;0.30;;;19.60;99.90;;;;;;5052650;28;20100;-75
2023/08/30 10:57:13;;;;;;;3.92;0.25;;;19.40;99.90;;;;;;5052885;28;20021;-76
2023/08/30 10:59:39;;;;;;;3.70;0.28;;;19.20;99.90;;;;;;5052817;28;20029;-76
2023/08/30 11:02:05;;;;;;;3.70;0.45;;;19.20;99.90;;;;;;5034988;28;20032;-77
2023/08/30 11:04:31;;;;;;;6.00;0.73;;;19.10;99.90;;;;;;5052577;28;20028;-76
2023/08/30 11:06:57;;;;;;;2.03;0.20;;;19.20;99.90;;;;;;5052625;28;20017;-76
2023/08/30 11:09:24;;;;;;;2.83;1.00;;;19.40;99.90;;;;;;5052564;28;20509;-75
2023/08/30 11:11:50;;;;;;;7.25;0.47;;;19.30;99.90;;;;;;5052685;28;20021;-76
2023/08/30 11:14:17;;;;;;;1.10;0.30;;;19.20;99.90;;;;;;5052606;28;20425;-76
2023/08/30 11:16:43;;;;;;;2.10;0.17;;;19.00;99.90;;;;;;5053561;28;20031;-76
2023/08/30 11:19:10;;;;;;;7.07;0.45;;;18.90;99.90;;;;;;5054342;28;20029;-76
2023/08/30 11:21:42;;;;;;;3.42;0.75;;;19.00;99.90;;;;;;5056627;28;20025;-77
2023/08/30 11:24:08;;;;;;;1.98;0.28;;;19.30;99.90;;;;;;5056115;28;20025;-77
2023/08/30 11:26:33;;;;;;;1.83;0.40;;;19.70;99.90;;;;;;5055978;28;20036;-75
2023/08/30 11:29:09;;;;;;;3.38;0.47;;;20.10;99.90;;;;;;5055904;28;20083;-76
2023/08/30 11:31:35;;;;;;;5.53;0.20;;;20.50;99.90;;;;;;5056069;28;20044;-75
2023/08/30 11:34:01;;;;;;;4.57;0.65;;;20.50;99.90;;;;;;5056078;28;20021;-76
2023/08/30 11:36:29;;;;;;;1.58;0.00;;;20.40;99.90;;;;;;5055796;28;20021;-76
2023/08/30 11:38:56;;;;;;;5.10;0.63;;;20.20;99.90;;;;;;5038197;28;20108;-76
2023/08/30 11:41:22;;;;;;;10.35;0.35;;;19.90;99.90;;;;;;5056503;28;20517;-76
2023/08/30 11:43:58;;;;;;;7.40;0.75;;;19.70;99.90;;;;;;5056016;28;20044;-75
2023/08/30 11:46:24;;;;;;;2.75;0.25;;;19.60;99.90;;;;;;5055855;28;20025;-75
2023/08/30 11:48:51;;;;;;;6.53;0.43;;;19.40;99.90;;;;;;5037781;28;20048;-76
2023/08/30 11:51:18;;;;;;;6.53;0.95;;;19.30;99.90;;;;;;5055844;28;20024;-76
2023/08/30 11:53:45;;;;;;;5.82;0.15;;;19.10;99.90;;;;;;5037784;28;20055;-76
2023/08/30 11:56:11;;;;;;;4.65;0.15;;;19.10;99.90;;;;;;5037565;28;20108;-77
2023/08/30 11:58:37;;;;;;;3.03;0.30;;;19.20;99.90;;;;;;5055613;28;20039;-75
2023/08/30 12:01:07;;;;;;;1.25;0.13;;;19.40;99.90;;;;;;5055349;28;20017;-76
2023/08/30 12:03:33;;;;;;;4.70;0.10;;;19.90;99.90;;;;;;5055463;28;20078;-77
2023/08/30 12:05:59;;;;;;;1.23;0.05;;;20.30;99.90;;;;;;5055323;28;20489;-76
2023/08/30 12:08:29;;;;;;;7.45;0.30;;;20.70;99.90;;;;;;5055288;28;20048;-76
2023/08/30 12:10:56;;;;;;;4.97;0.00;;;21.10;99.90;;;;;;5037481;28;20031;-78
2023/08/30 12:13:26;;;;;;;4.53;0.52;;;21.60;99.90;;;;;;5055788;28;20033;-76
2023/08/30 12:15:56;;;;;;;4.78;0.40;;;21.80;99.90;;;;;;5055194;28;20047;-77
2023/08/30 12:18:27;;;;;;;0.95;0.10;;;21.80;99.90;;;;;;5037438;28;20021;-76
2023/08/30 12:21:00;;;;;;;2.47;0.20;;;22.10;99.90;;;;;;5055264;28;20119;-77
2023/08/30 12:23:27;;;;;;;2.38;0.20;;;22.20;99.90;;;;;;5055317;28;20024;-76
2023/08/30 12:26:12;;;;;;;4.38;0.55;;;22.30;99.90;;;;;;5054697;28;20112;-76
2023/08/30 12:28:41;;;;;;;1.70;0.10;;;22.40;99.90;;;;;;5055250;28;20021;-77
2023/08/30 12:31:07;;;;;;;3.65;0.55;;;22.70;99.90;;;;;;5055378;28;20017;-77
2023/08/30 12:33:37;;;;;;;1.95;0.30;;;22.60;99.90;;;;;;5055663;28;20025;-77
2023/08/30 12:36:03;;;;;;;4.93;0.10;;;22.50;99.90;;;;;;5037170;28;20024;-77
2023/08/30 12:38:29;;;;;;;3.80;0.10;;;22.70;99.90;;;;;;5054978;28;20077;-77
2023/08/30 12:40:56;;;;;;;2.10;0.00;;;22.60;99.90;;;;;;5055406;28;20021;-77
2023/08/30 12:43:22;;;;;;;1.85;0.25;;;22.40;99.90;;;;;;5054692;28;20029;-76